sensor_id;sensor_type;location;lat;lon;timestamp;P1;durP1;ratioP1;P2;durP2;ratioP2
11222;SDS011;5668;52.012;8.724;2023-07-13T00:00:37;2.65;;;1.40;;
11222;SDS011;5668;52.012;8.724;2023-07-13T00:03:03;4.32;;;1.30;;
11222;SDS011;5668;52.012;8.724;2023-07-13T00:05:30;3.10;;;1.52;;
11222;SDS011;5668;52.012;8.724;2023-07-13T00:07:58;3.85;;;1.90;;
11222;SDS011;5668;52.012;8.724;2023-07-13T00:10:25;4.93;;;1.60;;
11222;SDS011;5668;52.012;8.724;2023-07-13T00:12:52;3.13;;;1.30;;
11222;SDS011;5668;52.012;8.724;2023-07-13T00:15:22;2.08;;;1.10;;
11222;SDS011;5668;52.012;8.724;2023-07-13T00:17:52;2.60;;;1.45;;
11222;SDS011;5668;52.012;8.724;2023-07-13T00:20:21;5.10;;;1.67;;
11222;SDS011;5668;52.012;8.724;2023-07-13T00:22:51;3.40;;;1.35;;
11222;SDS011;5668;52.012;8.724;2023-07-13T00:25:18;2.95;;;1.25;;
11222;SDS011;5668;52.012;8.724;2023-07-13T00:27:46;2.63;;;1.55;;
11222;SDS011;5668;52.012;8.724;2023-07-13T00:30:14;2.38;;;1.30;;
11222;SDS011;5668;52.012;8.724;2023-07-13T00:32:42;2.58;;;1.30;;
11222;SDS011;5668;52.012;8.724;2023-07-13T00:35:12;4.18;;;1.77;;
11222;SDS011;5668;52.012;8.724;2023-07-13T00:37:40;2.25;;;1.40;;
11222;SDS011;5668;52.012;8.724;2023-07-13T00:40:09;4.28;;;1.30;;
11222;SDS011;5668;52.012;8.724;2023-07-13T00:42:39;4.13;;;1.70;;
11222;SDS011;5668;52.012;8.724;2023-07-13T00:46:02;2.72;;;1.40;;
11222;SDS011;5668;52.012;8.724;2023-07-13T00:48:15;2.25;;;1.45;;
11222;SDS011;5668;52.012;8.724;2023-07-13T00:50:46;4.47;;;1.60;;
11222;SDS011;5668;52.012;8.724;2023-07-13T00:53:17;2.95;;;1.52;;
11222;SDS011;5668;52.012;8.724;2023-07-13T00:55:46;2.20;;;1.50;;
11222;SDS011;5668;52.012;8.724;2023-07-13T00:58:14;2.30;;;1.40;;
11222;SDS011;5668;52.012;8.724;2023-07-13T01:00:42;4.28;;;1.70;;
11222;SDS011;5668;52.012;8.724;2023-07-13T01:03:10;3.65;;;1.60;;
11222;SDS011;5668;52.012;8.724;2023-07-13T01:05:39;3.67;;;2.03;;
11222;SDS011;5668;52.012;8.724;2023-07-13T01:08:07;4.15;;;1.83;;
11222;SDS011;5668;52.012;8.724;2023-07-13T01:10:34;3.03;;;1.67;;
11222;SDS011;5668;52.012;8.724;2023-07-13T01:13:05;4.05;;;1.65;;
11222;SDS011;5668;52.012;8.724;2023-07-13T01:15:33;4.57;;;1.88;;
11222;SDS011;5668;52.012;8.724;2023-07-13T01:18:05;3.00;;;1.63;;
11222;SDS011;5668;52.012;8.724;2023-07-13T01:20:36;2.70;;;1.38;;
11222;SDS011;5668;52.012;8.724;2023-07-13T01:23:06;2.47;;;1.52;;
11222;SDS011;5668;52.012;8.724;2023-07-13T01:25:34;3.05;;;1.30;;
11222;SDS011;5668;52.012;8.724;2023-07-13T01:28:03;2.33;;;1.50;;
11222;SDS011;5668;52.012;8.724;2023-07-13T01:30:31;3.13;;;1.83;;
11222;SDS011;5668;52.012;8.724;2023-07-13T01:32:58;4.35;;;2.05;;
11222;SDS011;5668;52.012;8.724;2023-07-13T01:35:26;4.10;;;1.60;;
11222;SDS011;5668;52.012;8.724;2023-07-13T01:37:53;3.17;;;1.42;;
11222;SDS011;5668;52.012;8.724;2023-07-13T01:40:23;3.35;;;1.60;;
11222;SDS011;5668;52.012;8.724;2023-07-13T01:42:50;3.92;;;1.80;;
11222;SDS011;5668;52.012;8.724;2023-07-13T01:45:17;3.08;;;1.70;;
11222;SDS011;5668;52.012;8.724;2023-07-13T01:47:44;3.60;;;1.90;;
11222;SDS011;5668;52.012;8.724;2023-07-13T01:50:12;3.03;;;1.98;;
11222;SDS011;5668;52.012;8.724;2023-07-13T01:52:40;2.97;;;1.73;;
11222;SDS011;5668;52.012;8.724;2023-07-13T01:55:07;4.35;;;1.85;;
11222;SDS011;5668;52.012;8.724;2023-07-13T01:57:36;2.28;;;1.90;;
11222;SDS011;5668;52.012;8.724;2023-07-13T02:00:13;4.90;;;2.00;;
11222;SDS011;5668;52.012;8.724;2023-07-13T02:02:41;4.75;;;1.80;;
11222;SDS011;5668;52.012;8.724;2023-07-13T02:05:09;4.82;;;2.00;;
11222;SDS011;5668;52.012;8.724;2023-07-13T02:07:36;2.95;;;1.75;;
11222;SDS011;5668;52.012;8.724;2023-07-13T02:10:04;5.50;;;1.83;;
11222;SDS011;5668;52.012;8.724;2023-07-13T02:12:34;5.03;;;2.00;;
11222;SDS011;5668;52.012;8.724;2023-07-13T02:15:04;4.93;;;1.90;;
11222;SDS011;5668;52.012;8.724;2023-07-13T02:17:31;4.82;;;1.83;;
11222;SDS011;5668;52.012;8.724;2023-07-13T02:19:59;3.65;;;1.88;;
11222;SDS011;5668;52.012;8.724;2023-07-13T02:22:27;4.65;;;1.92;;
11222;SDS011;5668;52.012;8.724;2023-07-13T02:24:54;2.17;;;1.83;;
11222;SDS011;5668;52.012;8.724;2023-07-13T02:27:22;5.72;;;2.20;;
11222;SDS011;5668;52.012;8.724;2023-07-13T02:29:50;4.25;;;1.85;;
11222;SDS011;5668;52.012;8.724;2023-07-13T02:32:18;3.78;;;1.90;;
11222;SDS011;5668;52.012;8.724;2023-07-13T02:34:45;5.18;;;2.58;;
11222;SDS011;5668;52.012;8.724;2023-07-13T02:37:12;4.63;;;2.13;;
11222;SDS011;5668;52.012;8.724;2023-07-13T02:39:39;4.28;;;1.92;;
11222;SDS011;5668;52.012;8.724;2023-07-13T02:42:07;2.25;;;1.70;;
11222;SDS011;5668;52.012;8.724;2023-07-13T02:44:34;4.07;;;2.33;;
11222;SDS011;5668;52.012;8.724;2023-07-13T02:47:03;4.45;;;2.17;;
11222;SDS011;5668;52.012;8.724;2023-07-13T02:49:30;3.58;;;2.10;;
11222;SDS011;5668;52.012;8.724;2023-07-13T02:51:57;3.53;;;1.95;;
11222;SDS011;5668;52.012;8.724;2023-07-13T02:54:24;4.03;;;1.90;;
11222;SDS011;5668;52.012;8.724;2023-07-13T02:56:52;4.18;;;1.95;;
11222;SDS011;5668;52.012;8.724;2023-07-13T02:59:19;5.78;;;2.50;;
11222;SDS011;5668;52.012;8.724;2023-07-13T03:04:16;6.57;;;2.47;;
11222;SDS011;5668;52.012;8.724;2023-07-13T03:06:44;5.10;;;2.45;;
11222;SDS011;5668;52.012;8.724;2023-07-13T03:09:11;3.93;;;2.00;;
11222;SDS011;5668;52.012;8.724;2023-07-13T03:11:39;3.58;;;2.00;;
11222;SDS011;5668;52.012;8.724;2023-07-13T03:14:07;4.97;;;2.13;;
11222;SDS011;5668;52.012;8.724;2023-07-13T03:16:34;5.30;;;2.28;;
11222;SDS011;5668;52.012;8.724;2023-07-13T03:19:02;4.38;;;2.20;;
11222;SDS011;5668;52.012;8.724;2023-07-13T03:21:31;4.22;;;2.20;;
11222;SDS011;5668;52.012;8.724;2023-07-13T03:23:58;2.42;;;2.08;;
11222;SDS011;5668;52.012;8.724;2023-07-13T03:26:25;3.47;;;2.67;;
11222;SDS011;5668;52.012;8.724;2023-07-13T03:28:52;5.40;;;2.33;;
11222;SDS011;5668;52.012;8.724;2023-07-13T03:31:20;6.15;;;2.85;;
11222;SDS011;5668;52.012;8.724;2023-07-13T03:33:49;3.35;;;2.33;;
11222;SDS011;5668;52.012;8.724;2023-07-13T03:36:18;5.03;;;2.60;;
11222;SDS011;5668;52.012;8.724;2023-07-13T03:38:48;3.50;;;2.40;;
11222;SDS011;5668;52.012;8.724;2023-07-13T03:41:16;4.65;;;2.67;;
11222;SDS011;5668;52.012;8.724;2023-07-13T03:43:43;4.43;;;2.55;;
11222;SDS011;5668;52.012;8.724;2023-07-13T03:46:12;4.20;;;2.90;;
11222;SDS011;5668;52.012;8.724;2023-07-13T03:48:40;4.40;;;2.70;;
11222;SDS011;5668;52.012;8.724;2023-07-13T03:51:09;6.03;;;2.50;;
11222;SDS011;5668;52.012;8.724;2023-07-13T03:53:38;5.63;;;3.60;;
11222;SDS011;5668;52.012;8.724;2023-07-13T03:56:08;3.60;;;2.50;;
11222;SDS011;5668;52.012;8.724;2023-07-13T03:58:37;4.57;;;2.85;;
11222;SDS011;5668;52.012;8.724;2023-07-13T04:01:06;3.47;;;2.70;;
11222;SDS011;5668;52.012;8.724;2023-07-13T04:03:36;5.57;;;2.80;;
11222;SDS011;5668;52.012;8.724;2023-07-13T04:06:04;5.22;;;2.70;;
11222;SDS011;5668;52.012;8.724;2023-07-13T04:08:34;3.17;;;2.60;;
11222;SDS011;5668;52.012;8.724;2023-07-13T04:11:03;3.63;;;2.60;;
11222;SDS011;5668;52.012;8.724;2023-07-13T04:13:32;5.70;;;3.20;;
11222;SDS011;5668;52.012;8.724;2023-07-13T04:15:59;4.97;;;2.90;;
11222;SDS011;5668;52.012;8.724;2023-07-13T04:18:26;2.88;;;2.50;;
11222;SDS011;5668;52.012;8.724;2023-07-13T04:20:53;4.82;;;2.88;;
11222;SDS011;5668;52.012;8.724;2023-07-13T04:23:21;5.15;;;2.47;;
11222;SDS011;5668;52.012;8.724;2023-07-13T04:25:49;5.57;;;2.80;;
11222;SDS011;5668;52.012;8.724;2023-07-13T04:28:18;6.90;;;2.53;;
11222;SDS011;5668;52.012;8.724;2023-07-13T04:30:48;3.53;;;2.28;;
11222;SDS011;5668;52.012;8.724;2023-07-13T04:33:16;3.58;;;2.30;;
11222;SDS011;5668;52.012;8.724;2023-07-13T04:35:47;4.47;;;2.30;;
11222;SDS011;5668;52.012;8.724;2023-07-13T04:38:15;3.83;;;2.08;;
11222;SDS011;5668;52.012;8.724;2023-07-13T04:40:44;4.18;;;2.28;;
11222;SDS011;5668;52.012;8.724;2023-07-13T04:43:12;6.47;;;2.55;;
11222;SDS011;5668;52.012;8.724;2023-07-13T04:45:39;6.72;;;2.38;;
11222;SDS011;5668;52.012;8.724;2023-07-13T04:48:08;4.22;;;2.40;;
11222;SDS011;5668;52.012;8.724;2023-07-13T04:50:35;4.40;;;2.30;;
11222;SDS011;5668;52.012;8.724;2023-07-13T04:53:03;4.15;;;2.30;;
11222;SDS011;5668;52.012;8.724;2023-07-13T04:55:31;2.97;;;1.88;;
11222;SDS011;5668;52.012;8.724;2023-07-13T04:57:58;3.25;;;1.90;;
11222;SDS011;5668;52.012;8.724;2023-07-13T05:00:27;4.53;;;2.10;;
11222;SDS011;5668;52.012;8.724;2023-07-13T05:02:55;4.22;;;2.15;;
11222;SDS011;5668;52.012;8.724;2023-07-13T05:05:24;5.75;;;2.08;;
11222;SDS011;5668;52.012;8.724;2023-07-13T05:07:53;4.40;;;1.98;;
11222;SDS011;5668;52.012;8.724;2023-07-13T05:10:20;3.00;;;1.70;;
11222;SDS011;5668;52.012;8.724;2023-07-13T05:12:48;3.63;;;1.85;;
11222;SDS011;5668;52.012;8.724;2023-07-13T05:15:16;3.97;;;1.70;;
11222;SDS011;5668;52.012;8.724;2023-07-13T05:17:46;3.45;;;1.73;;
11222;SDS011;5668;52.012;8.724;2023-07-13T05:20:13;5.07;;;1.98;;
11222;SDS011;5668;52.012;8.724;2023-07-13T05:22:45;6.07;;;1.90;;
11222;SDS011;5668;52.012;8.724;2023-07-13T05:25:13;5.80;;;1.90;;
11222;SDS011;5668;52.012;8.724;2023-07-13T05:27:40;4.80;;;1.63;;
11222;SDS011;5668;52.012;8.724;2023-07-13T05:30:10;3.83;;;1.70;;
11222;SDS011;5668;52.012;8.724;2023-07-13T05:32:38;3.55;;;1.77;;
11222;SDS011;5668;52.012;8.724;2023-07-13T05:35:06;3.33;;;1.85;;
11222;SDS011;5668;52.012;8.724;2023-07-13T05:37:33;5.07;;;1.70;;
11222;SDS011;5668;52.012;8.724;2023-07-13T05:40:02;3.08;;;1.88;;
11222;SDS011;5668;52.012;8.724;2023-07-13T05:42:31;5.90;;;2.03;;
11222;SDS011;5668;52.012;8.724;2023-07-13T05:44:58;5.43;;;1.85;;
11222;SDS011;5668;52.012;8.724;2023-07-13T05:47:25;5.53;;;1.73;;
11222;SDS011;5668;52.012;8.724;2023-07-13T05:49:53;4.00;;;1.70;;
11222;SDS011;5668;52.012;8.724;2023-07-13T05:52:20;2.70;;;1.38;;
11222;SDS011;5668;52.012;8.724;2023-07-13T05:54:47;4.38;;;2.05;;
11222;SDS011;5668;52.012;8.724;2023-07-13T05:57:16;3.80;;;1.90;;
11222;SDS011;5668;52.012;8.724;2023-07-13T05:59:43;3.92;;;1.70;;
11222;SDS011;5668;52.012;8.724;2023-07-13T06:02:10;4.38;;;1.63;;
11222;SDS011;5668;52.012;8.724;2023-07-13T06:04:37;5.28;;;2.00;;
11222;SDS011;5668;52.012;8.724;2023-07-13T06:07:05;1.92;;;1.27;;
11222;SDS011;5668;52.012;8.724;2023-07-13T06:09:32;3.05;;;1.38;;
11222;SDS011;5668;52.012;8.724;2023-07-13T06:11:59;2.78;;;1.50;;
11222;SDS011;5668;52.012;8.724;2023-07-13T06:14:28;3.20;;;1.38;;
11222;SDS011;5668;52.012;8.724;2023-07-13T06:16:55;3.88;;;1.45;;
11222;SDS011;5668;52.012;8.724;2023-07-13T06:19:22;3.60;;;1.67;;
11222;SDS011;5668;52.012;8.724;2023-07-13T06:21:50;4.45;;;1.70;;
11222;SDS011;5668;52.012;8.724;2023-07-13T06:24:17;4.13;;;1.50;;
11222;SDS011;5668;52.012;8.724;2023-07-13T06:26:44;4.15;;;1.88;;
11222;SDS011;5668;52.012;8.724;2023-07-13T06:29:11;4.20;;;1.80;;
11222;SDS011;5668;52.012;8.724;2023-07-13T06:31:40;5.03;;;2.05;;
11222;SDS011;5668;52.012;8.724;2023-07-13T06:34:07;3.90;;;1.60;;
11222;SDS011;5668;52.012;8.724;2023-07-13T06:36:35;5.22;;;1.90;;
11222;SDS011;5668;52.012;8.724;2023-07-13T06:39:03;4.78;;;1.77;;
11222;SDS011;5668;52.012;8.724;2023-07-13T06:41:30;4.10;;;1.40;;
11222;SDS011;5668;52.012;8.724;2023-07-13T06:43:58;4.68;;;1.58;;
11222;SDS011;5668;52.012;8.724;2023-07-13T06:46:25;5.70;;;1.90;;
11222;SDS011;5668;52.012;8.724;2023-07-13T06:48:56;7.55;;;2.00;;
11222;SDS011;5668;52.012;8.724;2023-07-13T06:51:23;4.00;;;2.05;;
11222;SDS011;5668;52.012;8.724;2023-07-13T06:53:51;5.28;;;2.30;;
11222;SDS011;5668;52.012;8.724;2023-07-13T06:56:19;7.20;;;2.67;;
11222;SDS011;5668;52.012;8.724;2023-07-13T06:58:46;4.93;;;2.40;;
11222;SDS011;5668;52.012;8.724;2023-07-13T07:01:13;6.07;;;2.40;;
11222;SDS011;5668;52.012;8.724;2023-07-13T07:03:41;3.17;;;2.22;;
11222;SDS011;5668;52.012;8.724;2023-07-13T07:06:12;5.55;;;2.40;;
11222;SDS011;5668;52.012;8.724;2023-07-13T07:08:41;5.10;;;2.35;;
11222;SDS011;5668;52.012;8.724;2023-07-13T07:11:11;5.63;;;2.42;;
11222;SDS011;5668;52.012;8.724;2023-07-13T07:13:39;4.30;;;2.38;;
11222;SDS011;5668;52.012;8.724;2023-07-13T07:16:07;6.25;;;2.30;;
11222;SDS011;5668;52.012;8.724;2023-07-13T07:18:34;5.57;;;2.15;;
11222;SDS011;5668;52.012;8.724;2023-07-13T07:21:02;4.35;;;2.10;;
11222;SDS011;5668;52.012;8.724;2023-07-13T07:23:31;3.17;;;1.83;;
11222;SDS011;5668;52.012;8.724;2023-07-13T07:25:58;6.63;;;2.25;;
11222;SDS011;5668;52.012;8.724;2023-07-13T07:28:25;3.85;;;1.88;;
11222;SDS011;5668;52.012;8.724;2023-07-13T07:30:54;4.57;;;1.90;;
11222;SDS011;5668;52.012;8.724;2023-07-13T07:33:22;6.97;;;2.20;;
11222;SDS011;5668;52.012;8.724;2023-07-13T07:35:50;6.35;;;1.88;;
11222;SDS011;5668;52.012;8.724;2023-07-13T07:38:18;5.47;;;2.20;;
11222;SDS011;5668;52.012;8.724;2023-07-13T07:40:46;4.97;;;1.98;;
11222;SDS011;5668;52.012;8.724;2023-07-13T07:43:13;5.03;;;1.85;;
11222;SDS011;5668;52.012;8.724;2023-07-13T07:45:40;5.53;;;1.92;;
11222;SDS011;5668;52.012;8.724;2023-07-13T07:48:08;5.85;;;2.08;;
11222;SDS011;5668;52.012;8.724;2023-07-13T07:50:35;6.45;;;2.40;;
11222;SDS011;5668;52.012;8.724;2023-07-13T07:53:04;4.90;;;1.90;;
11222;SDS011;5668;52.012;8.724;2023-07-13T07:55:32;4.82;;;2.10;;
11222;SDS011;5668;52.012;8.724;2023-07-13T07:58:01;6.20;;;1.90;;
11222;SDS011;5668;52.012;8.724;2023-07-13T08:00:29;7.25;;;2.60;;
11222;SDS011;5668;52.012;8.724;2023-07-13T08:02:56;5.35;;;2.00;;
11222;SDS011;5668;52.012;8.724;2023-07-13T08:05:24;5.13;;;2.08;;
11222;SDS011;5668;52.012;8.724;2023-07-13T08:07:51;5.63;;;2.40;;
11222;SDS011;5668;52.012;8.724;2023-07-13T08:10:19;6.18;;;2.13;;
11222;SDS011;5668;52.012;8.724;2023-07-13T08:12:47;4.65;;;2.00;;
11222;SDS011;5668;52.012;8.724;2023-07-13T08:15:18;5.40;;;1.92;;
11222;SDS011;5668;52.012;8.724;2023-07-13T08:17:46;5.57;;;2.30;;
11222;SDS011;5668;52.012;8.724;2023-07-13T08:20:14;5.57;;;2.40;;
11222;SDS011;5668;52.012;8.724;2023-07-13T08:22:41;5.78;;;1.92;;
11222;SDS011;5668;52.012;8.724;2023-07-13T08:25:08;4.13;;;2.03;;
11222;SDS011;5668;52.012;8.724;2023-07-13T08:27:36;7.07;;;2.65;;
11222;SDS011;5668;52.012;8.724;2023-07-13T08:30:04;4.13;;;2.20;;
11222;SDS011;5668;52.012;8.724;2023-07-13T08:32:35;5.43;;;2.47;;
11222;SDS011;5668;52.012;8.724;2023-07-13T08:35:04;5.70;;;2.75;;
11222;SDS011;5668;52.012;8.724;2023-07-13T08:37:31;4.82;;;2.17;;
11222;SDS011;5668;52.012;8.724;2023-07-13T08:39:59;5.18;;;2.17;;
11222;SDS011;5668;52.012;8.724;2023-07-13T08:42:30;8.10;;;2.50;;
11222;SDS011;5668;52.012;8.724;2023-07-13T08:45:04;4.70;;;2.22;;
11222;SDS011;5668;52.012;8.724;2023-07-13T08:47:40;4.53;;;1.95;;
11222;SDS011;5668;52.012;8.724;2023-07-13T08:50:12;7.22;;;2.70;;
11222;SDS011;5668;52.012;8.724;2023-07-13T08:52:43;4.10;;;2.00;;
11222;SDS011;5668;52.012;8.724;2023-07-13T08:55:12;4.38;;;2.08;;
11222;SDS011;5668;52.012;8.724;2023-07-13T08:57:43;5.00;;;2.40;;
11222;SDS011;5668;52.012;8.724;2023-07-13T09:00:14;5.03;;;2.15;;
11222;SDS011;5668;52.012;8.724;2023-07-13T09:02:44;7.05;;;2.70;;
11222;SDS011;5668;52.012;8.724;2023-07-13T09:05:22;4.40;;;2.05;;
11222;SDS011;5668;52.012;8.724;2023-07-13T09:07:58;5.32;;;2.13;;
11222;SDS011;5668;52.012;8.724;2023-07-13T09:10:37;5.57;;;2.30;;
11222;SDS011;5668;52.012;8.724;2023-07-13T09:13:15;4.88;;;2.30;;
11222;SDS011;5668;52.012;8.724;2023-07-13T09:15:51;6.05;;;2.15;;
11222;SDS011;5668;52.012;8.724;2023-07-13T09:18:21;3.00;;;1.85;;
11222;SDS011;5668;52.012;8.724;2023-07-13T09:20:55;5.25;;;2.00;;
11222;SDS011;5668;52.012;8.724;2023-07-13T09:23:27;4.70;;;2.05;;
11222;SDS011;5668;52.012;8.724;2023-07-13T09:25:58;3.70;;;1.83;;
11222;SDS011;5668;52.012;8.724;2023-07-13T09:28:33;3.72;;;1.98;;
11222;SDS011;5668;52.012;8.724;2023-07-13T09:31:06;3.47;;;1.95;;
11222;SDS011;5668;52.012;8.724;2023-07-13T09:33:38;3.15;;;1.65;;
11222;SDS011;5668;52.012;8.724;2023-07-13T09:36:15;3.95;;;2.05;;
11222;SDS011;5668;52.012;8.724;2023-07-13T09:38:45;3.83;;;1.88;;
11222;SDS011;5668;52.012;8.724;2023-07-13T09:41:15;5.65;;;1.70;;
11222;SDS011;5668;52.012;8.724;2023-07-13T09:44:00;5.32;;;1.90;;
11222;SDS011;5668;52.012;8.724;2023-07-13T09:46:36;4.35;;;1.80;;
11222;SDS011;5668;52.012;8.724;2023-07-13T09:49:05;3.72;;;1.67;;
11222;SDS011;5668;52.012;8.724;2023-07-13T09:51:35;2.95;;;1.88;;
11222;SDS011;5668;52.012;8.724;2023-07-13T09:54:03;3.58;;;1.60;;
11222;SDS011;5668;52.012;8.724;2023-07-13T09:56:30;2.92;;;1.80;;
11222;SDS011;5668;52.012;8.724;2023-07-13T09:58:58;3.90;;;1.95;;
11222;SDS011;5668;52.012;8.724;2023-07-13T10:01:32;4.05;;;1.80;;
11222;SDS011;5668;52.012;8.724;2023-07-13T10:04:01;4.00;;;1.70;;
11222;SDS011;5668;52.012;8.724;2023-07-13T10:06:37;5.85;;;2.00;;
11222;SDS011;5668;52.012;8.724;2023-07-13T10:09:08;4.13;;;2.10;;
11222;SDS011;5668;52.012;8.724;2023-07-13T10:11:36;2.83;;;1.95;;
11222;SDS011;5668;52.012;8.724;2023-07-13T10:14:10;3.28;;;2.08;;
11222;SDS011;5668;52.012;8.724;2023-07-13T10:16:40;5.50;;;1.85;;
11222;SDS011;5668;52.012;8.724;2023-07-13T10:19:11;4.13;;;2.20;;
11222;SDS011;5668;52.012;8.724;2023-07-13T10:21:46;4.22;;;2.10;;
11222;SDS011;5668;52.012;8.724;2023-07-13T10:24:17;4.30;;;2.30;;
11222;SDS011;5668;52.012;8.724;2023-07-13T10:26:48;5.40;;;2.33;;
11222;SDS011;5668;52.012;8.724;2023-07-13T10:29:20;3.92;;;2.25;;
11222;SDS011;5668;52.012;8.724;2023-07-13T10:31:51;3.80;;;1.90;;
11222;SDS011;5668;52.012;8.724;2023-07-13T10:34:18;3.17;;;1.85;;
11222;SDS011;5668;52.012;8.724;2023-07-13T10:36:47;5.63;;;2.28;;
11222;SDS011;5668;52.012;8.724;2023-07-13T10:39:16;3.97;;;2.17;;
11222;SDS011;5668;52.012;8.724;2023-07-13T10:41:46;3.47;;;2.10;;
11222;SDS011;5668;52.012;8.724;2023-07-13T10:44:20;3.20;;;2.15;;
11222;SDS011;5668;52.012;8.724;2023-07-13T10:46:51;4.47;;;2.78;;
11222;SDS011;5668;52.012;8.724;2023-07-13T10:49:20;3.13;;;2.17;;
11222;SDS011;5668;52.012;8.724;2023-07-13T10:51:50;3.83;;;2.50;;
11222;SDS011;5668;52.012;8.724;2023-07-13T10:54:19;4.07;;;2.33;;
11222;SDS011;5668;52.012;8.724;2023-07-13T10:56:52;4.35;;;2.40;;
11222;SDS011;5668;52.012;8.724;2023-07-13T10:59:33;3.95;;;2.40;;
11222;SDS011;5668;52.012;8.724;2023-07-13T11:02:08;5.05;;;2.45;;
11222;SDS011;5668;52.012;8.724;2023-07-13T11:04:41;5.25;;;2.70;;
11222;SDS011;5668;52.012;8.724;2023-07-13T11:07:19;3.22;;;2.70;;
11222;SDS011;5668;52.012;8.724;2023-07-13T11:09:49;4.32;;;2.33;;
11222;SDS011;5668;52.012;8.724;2023-07-13T11:12:27;2.72;;;2.47;;
11222;SDS011;5668;52.012;8.724;2023-07-13T11:15:11;4.43;;;2.63;;
11222;SDS011;5668;52.012;8.724;2023-07-13T11:17:49;5.65;;;3.05;;
11222;SDS011;5668;52.012;8.724;2023-07-13T11:20:30;3.80;;;2.38;;
11222;SDS011;5668;52.012;8.724;2023-07-13T11:25:58;3.92;;;2.92;;
11222;SDS011;5668;52.012;8.724;2023-07-13T11:28:29;5.40;;;2.50;;
11222;SDS011;5668;52.012;8.724;2023-07-13T11:33:52;7.35;;;3.10;;
11222;SDS011;5668;52.012;8.724;2023-07-13T11:36:23;4.40;;;2.67;;
11222;SDS011;5668;52.012;8.724;2023-07-13T11:38:59;4.97;;;2.47;;
11222;SDS011;5668;52.012;8.724;2023-07-13T11:41:31;3.47;;;2.50;;
11222;SDS011;5668;52.012;8.724;2023-07-13T11:44:04;4.60;;;2.53;;
11222;SDS011;5668;52.012;8.724;2023-07-13T11:46:34;4.50;;;2.40;;
11222;SDS011;5668;52.012;8.724;2023-07-13T11:49:01;2.92;;;2.17;;
11222;SDS011;5668;52.012;8.724;2023-07-13T11:51:33;6.07;;;2.40;;
11222;SDS011;5668;52.012;8.724;2023-07-13T11:54:05;4.88;;;2.38;;
11222;SDS011;5668;52.012;8.724;2023-07-13T11:56:40;7.25;;;2.28;;
11222;SDS011;5668;52.012;8.724;2023-07-13T11:59:08;3.42;;;1.90;;
11222;SDS011;5668;52.012;8.724;2023-07-13T12:01:42;3.13;;;1.80;;
11222;SDS011;5668;52.012;8.724;2023-07-13T12:06:47;6.00;;;2.20;;
11222;SDS011;5668;52.012;8.724;2023-07-13T12:09:26;3.70;;;2.10;;
11222;SDS011;5668;52.012;8.724;2023-07-13T12:11:55;2.13;;;1.73;;
11222;SDS011;5668;52.012;8.724;2023-07-13T12:14:25;3.67;;;1.80;;
11222;SDS011;5668;52.012;8.724;2023-07-13T12:16:52;3.65;;;2.20;;
11222;SDS011;5668;52.012;8.724;2023-07-13T12:19:22;4.35;;;2.17;;
11222;SDS011;5668;52.012;8.724;2023-07-13T12:21:53;5.35;;;2.20;;
11222;SDS011;5668;52.012;8.724;2023-07-13T12:24:22;5.22;;;2.50;;
11222;SDS011;5668;52.012;8.724;2023-07-13T12:26:52;5.07;;;2.45;;
11222;SDS011;5668;52.012;8.724;2023-07-13T12:29:20;4.82;;;2.10;;
11222;SDS011;5668;52.012;8.724;2023-07-13T12:31:48;3.95;;;1.98;;
11222;SDS011;5668;52.012;8.724;2023-07-13T12:34:18;3.53;;;2.22;;
11222;SDS011;5668;52.012;8.724;2023-07-13T12:36:47;4.10;;;2.20;;
11222;SDS011;5668;52.012;8.724;2023-07-13T12:39:16;8.32;;;2.40;;
11222;SDS011;5668;52.012;8.724;2023-07-13T12:41:46;5.35;;;2.50;;
11222;SDS011;5668;52.012;8.724;2023-07-13T12:44:16;3.15;;;1.83;;
11222;SDS011;5668;52.012;8.724;2023-07-13T12:46:54;4.03;;;2.15;;
11222;SDS011;5668;52.012;8.724;2023-07-13T12:49:26;5.30;;;2.20;;
11222;SDS011;5668;52.012;8.724;2023-07-13T12:51:57;2.85;;;2.05;;
11222;SDS011;5668;52.012;8.724;2023-07-13T12:54:26;3.10;;;2.03;;
11222;SDS011;5668;52.012;8.724;2023-07-13T12:56:54;3.63;;;2.10;;
11222;SDS011;5668;52.012;8.724;2023-07-13T12:59:27;2.85;;;1.95;;
11222;SDS011;5668;52.012;8.724;2023-07-13T13:02:01;4.13;;;2.10;;
11222;SDS011;5668;52.012;8.724;2023-07-13T13:04:43;2.80;;;2.08;;
11222;SDS011;5668;52.012;8.724;2023-07-13T13:07:11;2.75;;;2.30;;
11222;SDS011;5668;52.012;8.724;2023-07-13T13:09:38;2.22;;;2.03;;
11222;SDS011;5668;52.012;8.724;2023-07-13T13:12:06;2.53;;;2.17;;
11222;SDS011;5668;52.012;8.724;2023-07-13T13:14:36;2.28;;;2.08;;
11222;SDS011;5668;52.012;8.724;2023-07-13T13:17:04;3.30;;;2.05;;
11222;SDS011;5668;52.012;8.724;2023-07-13T13:19:44;5.22;;;2.38;;
11222;SDS011;5668;52.012;8.724;2023-07-13T13:22:11;2.97;;;2.00;;
11222;SDS011;5668;52.012;8.724;2023-07-13T13:24:39;2.72;;;2.05;;
11222;SDS011;5668;52.012;8.724;2023-07-13T13:27:08;3.72;;;2.25;;
11222;SDS011;5668;52.012;8.724;2023-07-13T13:29:43;2.95;;;2.15;;
11222;SDS011;5668;52.012;8.724;2023-07-13T13:32:11;3.35;;;1.70;;
11222;SDS011;5668;52.012;8.724;2023-07-13T13:34:39;4.40;;;1.88;;
11222;SDS011;5668;52.012;8.724;2023-07-13T13:37:10;3.42;;;1.90;;
11222;SDS011;5668;52.012;8.724;2023-07-13T13:39:44;2.55;;;1.90;;
11222;SDS011;5668;52.012;8.724;2023-07-13T13:42:12;3.03;;;2.22;;
11222;SDS011;5668;52.012;8.724;2023-07-13T13:44:40;2.72;;;2.00;;
11222;SDS011;5668;52.012;8.724;2023-07-13T13:47:16;2.47;;;1.63;;
11222;SDS011;5668;52.012;8.724;2023-07-13T13:49:58;2.63;;;1.60;;
11222;SDS011;5668;52.012;8.724;2023-07-13T13:52:26;2.03;;;1.60;;
11222;SDS011;5668;52.012;8.724;2023-07-13T13:54:53;2.03;;;1.40;;
11222;SDS011;5668;52.012;8.724;2023-07-13T13:57:21;2.60;;;1.50;;
11222;SDS011;5668;52.012;8.724;2023-07-13T13:59:50;6.20;;;2.20;;
11222;SDS011;5668;52.012;8.724;2023-07-13T14:02:22;4.43;;;2.00;;
11222;SDS011;5668;52.012;8.724;2023-07-13T14:04:52;3.55;;;1.70;;
11222;SDS011;5668;52.012;8.724;2023-07-13T14:07:23;4.43;;;1.80;;
11222;SDS011;5668;52.012;8.724;2023-07-13T14:09:51;3.85;;;1.75;;
11222;SDS011;5668;52.012;8.724;2023-07-13T14:12:18;2.78;;;2.10;;
11222;SDS011;5668;52.012;8.724;2023-07-13T14:14:46;3.28;;;2.10;;
11222;SDS011;5668;52.012;8.724;2023-07-13T14:17:18;3.67;;;2.25;;
11222;SDS011;5668;52.012;8.724;2023-07-13T14:19:47;4.63;;;2.20;;
11222;SDS011;5668;52.012;8.724;2023-07-13T14:22:21;4.80;;;2.22;;
11222;SDS011;5668;52.012;8.724;2023-07-13T14:24:49;3.70;;;2.50;;
11222;SDS011;5668;52.012;8.724;2023-07-13T14:27:17;2.20;;;1.80;;
11222;SDS011;5668;52.012;8.724;2023-07-13T14:29:44;3.13;;;2.20;;
11222;SDS011;5668;52.012;8.724;2023-07-13T14:32:11;6.47;;;2.10;;
11222;SDS011;5668;52.012;8.724;2023-07-13T14:34:40;4.88;;;2.30;;
11222;SDS011;5668;52.012;8.724;2023-07-13T14:37:11;5.20;;;2.30;;
11222;SDS011;5668;52.012;8.724;2023-07-13T14:39:41;4.05;;;2.30;;
11222;SDS011;5668;52.012;8.724;2023-07-13T14:42:10;4.63;;;2.20;;
11222;SDS011;5668;52.012;8.724;2023-07-13T14:44:37;3.63;;;2.00;;
11222;SDS011;5668;52.012;8.724;2023-07-13T14:47:05;3.97;;;2.22;;
11222;SDS011;5668;52.012;8.724;2023-07-13T14:49:34;2.83;;;2.13;;
11222;SDS011;5668;52.012;8.724;2023-07-13T14:52:09;3.05;;;2.17;;
11222;SDS011;5668;52.012;8.724;2023-07-13T14:54:39;3.58;;;2.20;;
11222;SDS011;5668;52.012;8.724;2023-07-13T14:57:09;4.32;;;1.92;;
11222;SDS011;5668;52.012;8.724;2023-07-13T14:59:37;6.82;;;2.55;;
11222;SDS011;5668;52.012;8.724;2023-07-13T15:02:11;3.08;;;2.28;;
11222;SDS011;5668;52.012;8.724;2023-07-13T15:04:41;3.55;;;2.50;;
11222;SDS011;5668;52.012;8.724;2023-07-13T15:07:11;4.50;;;2.78;;
11222;SDS011;5668;52.012;8.724;2023-07-13T15:09:40;3.53;;;2.47;;
11222;SDS011;5668;52.012;8.724;2023-07-13T15:12:08;3.83;;;2.03;;
11222;SDS011;5668;52.012;8.724;2023-07-13T15:14:35;3.30;;;1.80;;
11222;SDS011;5668;52.012;8.724;2023-07-13T15:17:03;1.45;;;1.33;;
11222;SDS011;5668;52.012;8.724;2023-07-13T15:19:31;1.98;;;1.50;;
11222;SDS011;5668;52.012;8.724;2023-07-13T15:22:00;2.40;;;1.52;;
11222;SDS011;5668;52.012;8.724;2023-07-13T15:24:29;2.30;;;1.60;;